Terminal Aerodrome Forecast
Issued by NWS

Home | Current Version | Previous Version | Text Only | Print | Product List | Glossary On
Versions: 1 2 3 4 5 6 7 8 9 10 11 12 13 14 15 16 17 18 19 20 21 22 23
000
FTUS44 KLZK 211700
TAFHOT
TAF
KHOT 211730Z 2118/2218 VRB05KT P6SM SKC
      TEMPO 2208/2212 3SM BR
     FM221200 VRB02KT 3SM BR BKN003
      TEMPO 2212/2215 1/2SM FG VV001
     FM221500 12007KT P6SM SKC=

USA.gov is the U.S. government's official web portal to all federal, state and local government web resources and services.